createdAt,value
2023-02-22T00:00:42.002Z,1.50
2023-02-22T00:05:46.710Z,1.20
2023-02-22T00:10:48.584Z,1.10
2023-02-22T00:15:50.526Z,1.00
2023-02-22T00:20:54.220Z,0.80
2023-02-22T00:25:57.110Z,0.70
2023-02-22T00:30:58.881Z,0.50
2023-02-22T00:36:02.049Z,0.30
2023-02-22T00:41:04.060Z,0.40
2023-02-22T00:46:06.028Z,0.30
2023-02-22T00:51:09.369Z,0.10
2023-02-22T00:56:11.371Z,0.00
2023-02-22T01:01:13.201Z,0.00
2023-02-22T01:06:16.356Z,0.00
2023-02-22T01:11:18.704Z,0.10
2023-02-22T01:16:21.176Z,0.10
2023-02-22T01:21:24.360Z,0.10
2023-02-22T01:26:26.103Z,0.30
2023-02-22T01:31:27.895Z,0.20
2023-02-22T01:36:31.099Z,0.00
2023-02-22T01:41:33.114Z,-0.10
2023-02-22T01:46:34.901Z,-0.30
2023-02-22T01:51:40.491Z,-0.40
2023-02-22T01:56:48.544Z,-0.50
2023-02-22T02:01:50.442Z,-0.50
2023-02-22T02:06:55.520Z,-0.50
2023-02-22T02:11:59.010Z,-0.40
2023-02-22T02:17:01.497Z,-0.30
2023-02-22T02:22:34.020Z,-0.30
2023-02-22T02:27:53.764Z,-0.30
2023-02-22T02:33:01.734Z,-0.30
2023-02-22T02:38:10.784Z,-0.20
2023-02-22T02:43:17.618Z,-0.20
2023-02-22T02:48:25.568Z,-0.20
2023-02-22T02:53:32.986Z,-0.10
2023-02-22T02:58:44.942Z,-0.30
2023-02-22T03:04:13.109Z,-0.20
2023-02-22T03:09:25.831Z,-0.40
2023-02-22T03:14:35.396Z,-0.50
2023-02-22T03:19:45.030Z,-0.40
2023-02-22T03:24:52.830Z,-0.40
2023-02-22T03:29:58.168Z,-0.50
2023-02-22T03:35:06.283Z,-0.80
2023-02-22T03:40:11.737Z,-0.90
2023-02-22T03:45:15.433Z,-0.90
2023-02-22T03:50:21.365Z,-0.80
2023-02-22T03:55:23.186Z,-0.90
2023-02-22T04:00:29.068Z,-1.00
2023-02-22T04:05:32.272Z,-1.10
2023-02-22T04:10:34.026Z,-1.10
2023-02-22T04:15:35.702Z,-1.00
2023-02-22T04:20:38.810Z,-0.90
2023-02-22T04:25:40.674Z,-1.10
2023-02-22T04:30:42.506Z,-1.10
2023-02-22T04:35:48.554Z,-1.10
2023-02-22T04:40:51.954Z,-1.20
2023-02-22T04:45:53.667Z,-1.30
2023-02-22T04:50:59.222Z,-1.20
2023-02-22T04:56:01.033Z,-1.00
2023-02-22T05:01:02.806Z,-1.10
2023-02-22T05:06:06.680Z,-1.10
2023-02-22T05:11:08.451Z,-1.20
2023-02-22T05:16:10.340Z,-1.20
2023-02-22T05:21:13.690Z,-1.30
2023-02-22T05:26:15.418Z,-1.40
2023-02-22T05:31:17.424Z,-1.50
2023-02-22T05:36:20.655Z,-1.50
2023-02-22T05:41:22.757Z,-1.40
2023-02-22T05:46:24.520Z,-1.30
2023-02-22T05:51:27.731Z,-1.20
2023-02-22T05:56:30.158Z,-1.20
2023-02-22T06:01:31.879Z,-1.10
2023-02-22T06:06:34.938Z,-1.20
2023-02-22T06:11:36.705Z,-1.20
2023-02-22T06:16:38.477Z,-1.10
2023-02-22T06:21:49.163Z,-0.90
2023-02-22T06:26:55.454Z,-0.80
2023-02-22T06:31:57.256Z,-0.80
2023-02-22T06:37:00.559Z,-1.00
2023-02-22T06:42:02.341Z,-1.00
2023-02-22T06:47:04.272Z,-1.00
2023-02-22T06:52:10.732Z,-1.00
2023-02-22T06:57:12.639Z,-0.90
2023-02-22T07:02:14.832Z,-0.70
2023-02-22T07:07:18.274Z,-0.70
2023-02-22T07:12:20.037Z,-0.70
2023-02-22T07:17:21.733Z,-0.60
2023-02-22T07:22:24.808Z,-0.30
2023-02-22T07:27:26.550Z,0.20
2023-02-22T07:32:28.325Z,0.60
2023-02-22T07:37:31.440Z,0.90
2023-02-22T07:42:33.342Z,1.20
2023-02-22T07:47:35.057Z,1.50
2023-02-22T07:52:38.164Z,1.60
2023-02-22T07:57:39.840Z,1.70
2023-02-22T08:02:41.980Z,1.80
2023-02-22T08:07:45.138Z,1.90
2023-02-22T08:12:46.882Z,2.10
2023-02-22T08:17:48.579Z,2.40
2023-02-22T08:22:52.426Z,2.60
2023-02-22T08:27:57.641Z,2.90
2023-02-22T08:32:59.668Z,3.00
2023-02-22T08:38:04.658Z,3.20
2023-02-22T08:43:06.214Z,3.20
2023-02-22T08:48:07.961Z,3.30
2023-02-22T08:53:12.903Z,3.40
2023-02-22T08:58:14.532Z,3.50
2023-02-22T09:03:16.457Z,3.70
2023-02-22T09:08:19.701Z,3.80
2023-02-22T09:13:21.428Z,4.00
2023-02-22T09:18:23.706Z,4.20
2023-02-22T09:23:27.564Z,4.00
2023-02-22T09:28:29.385Z,4.00
2023-02-22T09:33:31.155Z,4.10
2023-02-22T09:38:34.328Z,4.40
2023-02-22T09:43:43.760Z,4.80
2023-02-22T09:48:57.423Z,5.40
2023-02-22T09:54:02.241Z,5.50
2023-02-22T09:59:07.910Z,5.70
2023-02-22T10:04:16.949Z,6.00
2023-02-22T10:09:27.431Z,6.00
2023-02-22T10:14:44.178Z,6.30
2023-02-22T10:19:56.486Z,6.00
2023-02-22T10:25:03.022Z,6.00
2023-02-22T10:30:24.145Z,6.20
2023-02-22T10:35:29.647Z,6.60
2023-02-22T10:40:32.919Z,6.70
2023-02-22T10:45:35.461Z,6.70
2023-02-22T10:50:39.958Z,6.90
2023-02-22T10:56:08.251Z,7.00
2023-02-22T11:01:21.936Z,7.20
2023-02-22T11:06:23.881Z,7.50
2023-02-22T11:11:27.104Z,7.80
2023-02-22T11:16:32.716Z,7.90
2023-02-22T11:21:37.415Z,7.90
2023-02-22T11:26:43.544Z,8.10
2023-02-22T11:31:46.943Z,8.10
2023-02-22T11:36:49.738Z,8.70
2023-02-22T11:41:58.828Z,9.10
2023-02-22T11:47:03.277Z,9.60
2023-02-22T11:52:23.295Z,10.10
2023-02-22T11:57:56.524Z,10.20
2023-02-22T12:03:40.516Z,10.60
2023-02-22T12:09:22.119Z,10.70
2023-02-22T12:19:48.927Z,10.50
2023-02-22T12:30:05.233Z,10.80
2023-02-22T12:35:40.199Z,11.30
2023-02-22T12:40:50.000Z,11.50
2023-02-22T12:46:00.330Z,11.90
2023-02-22T12:51:12.910Z,12.20
2023-02-22T12:56:22.229Z,12.50
2023-02-22T13:01:30.027Z,12.90
2023-02-22T13:06:41.377Z,13.00
2023-02-22T13:11:53.601Z,12.70
2023-02-22T13:17:03.813Z,12.60
2023-02-22T13:22:12.350Z,12.50
2023-02-22T13:27:19.246Z,12.80
2023-02-22T13:32:42.056Z,12.90
2023-02-22T13:38:00.170Z,13.10
2023-02-22T13:43:38.728Z,13.10
2023-02-22T13:49:00.394Z,13.10
2023-02-22T13:54:07.476Z,13.10
2023-02-22T13:59:24.138Z,12.90
2023-02-22T14:04:48.219Z,12.80
2023-02-22T14:09:51.329Z,12.60
2023-02-22T14:15:29.813Z,12.50
2023-02-22T14:20:35.486Z,12.40
2023-02-22T14:25:40.383Z,12.30
2023-02-22T14:31:35.403Z,12.40
2023-02-22T14:36:48.609Z,12.40
2023-02-22T14:41:57.293Z,12.30
2023-02-22T14:47:04.727Z,12.20
2023-02-22T14:52:21.251Z,12.30
2023-02-22T14:57:29.776Z,12.20
2023-02-22T15:02:42.117Z,12.30
2023-02-22T15:07:54.332Z,12.10
2023-02-22T15:12:59.922Z,11.90
2023-02-22T15:18:02.159Z,11.80
2023-02-22T15:23:08.613Z,11.70
2023-02-22T15:28:14.716Z,11.50
2023-02-22T15:33:18.790Z,11.50
2023-02-22T15:38:27.171Z,11.50
2023-02-22T15:54:54.836Z,10.90
2023-02-22T15:59:57.880Z,10.80
2023-02-22T16:05:04.028Z,10.60
2023-02-22T16:10:07.872Z,10.50
2023-02-22T16:15:25.434Z,10.30
2023-02-22T16:21:03.789Z,10.10
2023-02-22T16:26:21.719Z,9.90
2023-02-22T16:37:23.760Z,9.20
2023-02-22T16:42:26.919Z,8.90
2023-02-22T16:47:28.653Z,8.70
2023-02-22T16:52:31.204Z,8.50
2023-02-22T16:57:34.272Z,8.40
2023-02-22T17:02:35.991Z,8.60
2023-02-22T17:07:37.729Z,8.30
2023-02-22T17:18:31.813Z,7.60
2023-02-22T17:23:33.742Z,7.50
2023-02-22T17:34:25.652Z,6.90
2023-02-22T17:39:27.780Z,6.80
2023-02-22T17:44:30.169Z,6.50
2023-02-22T17:49:34.783Z,6.40
2023-02-22T17:54:38.871Z,6.30
2023-02-22T17:59:40.745Z,6.30
2023-02-22T18:04:44.023Z,6.30
2023-02-22T18:09:45.918Z,6.30
2023-02-22T18:14:49.885Z,6.20
2023-02-22T18:19:53.041Z,5.80
2023-02-22T18:24:58.428Z,5.70
2023-02-22T18:30:02.322Z,5.70
2023-02-22T18:35:09.473Z,5.60
2023-02-22T18:40:11.382Z,5.60
2023-02-22T18:45:13.259Z,5.70
2023-02-22T18:50:16.801Z,5.90
2023-02-22T18:55:20.217Z,5.70
2023-02-22T19:00:22.194Z,5.60
2023-02-22T19:05:25.381Z,5.50
2023-02-22T19:10:27.326Z,5.40
2023-02-22T19:15:29.140Z,5.30
2023-02-22T19:20:32.347Z,5.20
2023-02-22T19:25:38.802Z,5.20
2023-02-22T19:30:40.738Z,5.20
2023-02-22T19:35:43.950Z,5.00
2023-02-22T19:40:45.800Z,5.00
2023-02-22T19:45:47.570Z,5.00
2023-02-22T19:50:50.681Z,5.00
2023-02-22T19:56:15.723Z,5.00
2023-02-22T20:01:22.312Z,5.00
2023-02-22T20:06:55.755Z,4.90
2023-02-22T20:11:57.714Z,4.90
2023-02-22T20:16:59.662Z,4.90
2023-02-22T20:22:03.270Z,5.00
2023-02-22T20:27:05.029Z,4.90
2023-02-22T20:32:11.664Z,4.80
2023-02-22T20:37:14.131Z,4.80
2023-02-22T20:42:17.472Z,5.00
2023-02-22T20:47:21.327Z,5.10
2023-02-22T20:53:01.808Z,5.10
2023-02-22T20:58:04.988Z,5.10
2023-02-22T21:03:06.770Z,4.90
2023-02-22T21:08:08.528Z,4.80
2023-02-22T21:13:12.285Z,4.80
2023-02-22T21:18:14.802Z,4.80
2023-02-22T21:23:16.557Z,4.90
2023-02-22T21:28:19.692Z,4.90
2023-02-22T21:33:21.469Z,4.90
2023-02-22T21:38:23.339Z,5.00
2023-02-22T21:43:26.548Z,5.10
2023-02-22T21:48:28.512Z,5.00
2023-02-22T21:53:33.401Z,4.80
2023-02-22T21:58:39.347Z,4.80
2023-02-22T22:03:41.405Z,4.70
2023-02-22T22:08:43.520Z,4.90
2023-02-22T22:13:47.153Z,5.10
2023-02-22T22:24:07.105Z,5.50
2023-02-22T22:29:10.333Z,5.70
2023-02-22T22:34:12.316Z,5.90
2023-02-22T22:39:14.444Z,6.20
2023-02-22T22:49:58.556Z,6.60
2023-02-22T22:55:00.476Z,6.70
2023-02-22T23:00:07.205Z,6.70
2023-02-22T23:05:09.291Z,6.80
2023-02-22T23:10:11.493Z,6.80
2023-02-22T23:15:14.625Z,6.90
2023-02-22T23:20:16.552Z,6.90
2023-02-22T23:25:18.828Z,7.00
2023-02-22T23:30:22.296Z,7.00
2023-02-22T23:35:24.106Z,7.00
2023-02-22T23:40:26.738Z,7.10
2023-02-22T23:45:30.115Z,7.10
2023-02-22T23:50:32.123Z,7.10
2023-02-22T23:55:34.019Z,7.10
